createdAt,value
2017-09-06T00:00:33.243Z,99.90
2017-09-06T00:03:00.802Z,99.90
2017-09-06T00:05:28.363Z,99.90
2017-09-06T00:07:55.956Z,99.90
2017-09-06T00:10:23.519Z,99.90
2017-09-06T00:12:51.104Z,99.90
2017-09-06T00:15:18.679Z,99.90
2017-09-06T00:17:46.280Z,99.90
2017-09-06T00:20:13.907Z,99.90
2017-09-06T00:22:41.587Z,99.90
2017-09-06T00:25:09.170Z,99.90
2017-09-06T00:27:36.736Z,99.90
2017-09-06T00:30:04.326Z,99.90
2017-09-06T00:32:31.895Z,99.90
2017-09-06T00:34:59.450Z,99.90
2017-09-06T00:37:27.047Z,99.90
2017-09-06T00:39:54.619Z,99.90
2017-09-06T00:42:22.211Z,99.90
2017-09-06T00:44:49.775Z,99.90
2017-09-06T00:47:17.375Z,99.90
2017-09-06T00:49:45.068Z,99.90
2017-09-06T00:52:12.623Z,99.90
2017-09-06T00:54:40.216Z,99.90
2017-09-06T00:57:07.767Z,99.90
2017-09-06T00:59:35.360Z,99.90
2017-09-06T01:02:03.071Z,99.90
2017-09-06T01:04:30.637Z,99.90
2017-09-06T01:06:58.219Z,99.90
2017-09-06T01:09:25.779Z,99.90
2017-09-06T01:11:53.335Z,99.90
2017-09-06T01:14:20.927Z,99.90
2017-09-06T01:16:48.491Z,99.90
2017-09-06T01:19:16.046Z,99.90
2017-09-06T01:21:43.631Z,99.90
2017-09-06T01:24:11.187Z,99.90
2017-09-06T01:26:38.787Z,99.90
2017-09-06T01:29:06.339Z,99.90
2017-09-06T01:31:33.927Z,99.90
2017-09-06T01:34:01.486Z,99.90
2017-09-06T01:36:29.076Z,99.90
2017-09-06T01:38:56.638Z,99.90
2017-09-06T01:41:24.367Z,99.90
2017-09-06T01:43:52.007Z,99.90
2017-09-06T01:46:19.567Z,99.90
2017-09-06T01:48:47.159Z,99.90
2017-09-06T01:51:14.715Z,99.90
2017-09-06T01:53:42.264Z,99.90
2017-09-06T01:56:09.855Z,99.90
2017-09-06T01:58:37.456Z,99.90
2017-09-06T02:01:05.008Z,99.90
2017-09-06T02:03:32.650Z,99.90
2017-09-06T02:06:00.364Z,99.90
2017-09-06T02:08:27.915Z,99.90
2017-09-06T02:10:55.506Z,99.90
2017-09-06T02:13:23.067Z,99.90
2017-09-06T02:15:50.655Z,99.90
2017-09-06T02:18:18.208Z,99.90
2017-09-06T02:20:45.774Z,99.90
2017-09-06T02:23:13.360Z,99.90
2017-09-06T02:25:40.920Z,99.90
2017-09-06T02:28:08.503Z,99.90
2017-09-06T02:30:36.060Z,99.90
2017-09-06T02:33:03.647Z,99.90
2017-09-06T02:35:31.200Z,99.90
2017-09-06T02:37:58.859Z,99.90
2017-09-06T02:40:26.438Z,99.90
2017-09-06T02:42:53.988Z,99.90
2017-09-06T02:45:21.587Z,99.90
2017-09-06T02:47:49.159Z,99.90
2017-09-06T02:50:16.721Z,99.90
2017-09-06T02:52:44.391Z,99.90
2017-09-06T02:55:11.955Z,99.90
2017-09-06T02:57:39.543Z,99.90
2017-09-06T03:00:07.105Z,99.90
2017-09-06T03:02:34.660Z,99.90
2017-09-06T03:05:02.416Z,99.90
2017-09-06T03:07:29.976Z,99.90
2017-09-06T03:09:57.558Z,99.90
2017-09-06T03:12:25.111Z,99.90
2017-09-06T03:14:52.708Z,99.90
2017-09-06T03:17:20.265Z,99.90
2017-09-06T03:19:47.860Z,99.90
2017-09-06T03:22:15.423Z,99.90
2017-09-06T03:24:43.017Z,99.90
2017-09-06T03:27:11.451Z,99.90
2017-09-06T03:29:39.060Z,99.90
2017-09-06T03:32:06.636Z,99.90
2017-09-06T03:34:34.407Z,99.90
2017-09-06T03:37:01.972Z,99.90
2017-09-06T03:39:29.527Z,99.90
2017-09-06T03:41:57.121Z,99.90
2017-09-06T03:44:24.683Z,99.90
2017-09-06T03:46:52.296Z,99.90
2017-09-06T03:49:19.859Z,99.90
2017-09-06T03:51:47.619Z,99.90
2017-09-06T03:54:15.272Z,99.90
2017-09-06T03:56:42.827Z,99.90
2017-09-06T03:59:10.506Z,99.90
2017-09-06T04:01:38.067Z,99.90
2017-09-06T04:04:05.663Z,99.90
2017-09-06T04:06:33.223Z,99.90
2017-09-06T04:09:00.802Z,99.90
2017-09-06T04:11:28.359Z,99.90
2017-09-06T04:13:55.961Z,99.90
2017-09-06T04:16:23.535Z,99.90
2017-09-06T04:18:51.095Z,99.90
2017-09-06T04:21:18.688Z,99.90
2017-09-06T04:23:46.383Z,99.90
2017-09-06T04:26:13.962Z,99.90
2017-09-06T04:28:41.517Z,99.90
2017-09-06T04:31:09.099Z,99.90
2017-09-06T04:33:36.738Z,99.90
2017-09-06T04:36:04.297Z,99.90
2017-09-06T04:38:31.891Z,99.90
2017-09-06T04:40:59.451Z,99.90
2017-09-06T04:43:27.767Z,99.90
2017-09-06T04:45:55.356Z,99.90
2017-09-06T04:48:23.168Z,99.90
2017-09-06T04:50:50.875Z,99.90
2017-09-06T04:53:18.443Z,99.90
2017-09-06T04:55:46.006Z,99.90
2017-09-06T04:58:13.587Z,99.90
2017-09-06T05:00:41.151Z,99.90
2017-09-06T05:03:08.736Z,99.90
2017-09-06T05:05:36.291Z,99.90
2017-09-06T05:08:03.897Z,99.90
2017-09-06T05:10:31.459Z,99.90
2017-09-06T05:12:59.030Z,99.90
2017-09-06T05:15:26.622Z,99.90
2017-09-06T05:17:54.190Z,99.90
2017-09-06T05:20:21.819Z,99.90
2017-09-06T05:22:49.409Z,99.90
2017-09-06T05:25:17.019Z,99.90
2017-09-06T05:27:44.615Z,99.90
2017-09-06T05:30:12.171Z,99.90
2017-09-06T05:32:39.831Z,99.90
2017-09-06T05:35:07.540Z,99.90
2017-09-06T05:37:35.104Z,99.90
2017-09-06T05:40:02.690Z,99.90
2017-09-06T05:42:30.254Z,99.90
2017-09-06T05:44:57.855Z,99.90
2017-09-06T05:47:25.409Z,99.90
2017-09-06T05:49:52.967Z,99.90
2017-09-06T05:52:20.562Z,99.90
2017-09-06T05:54:48.114Z,99.90
2017-09-06T05:57:15.686Z,99.90
2017-09-06T05:59:43.248Z,99.90
2017-09-06T06:02:10.835Z,99.90
2017-09-06T06:04:39.157Z,99.90
2017-09-06T06:07:06.755Z,99.90
2017-09-06T06:09:34.447Z,99.90
2017-09-06T06:12:02.007Z,99.90
2017-09-06T06:14:29.603Z,99.90
2017-09-06T06:16:57.168Z,99.90
2017-09-06T06:19:24.759Z,99.90
2017-09-06T06:21:52.323Z,99.90
2017-09-06T06:24:19.875Z,99.90
2017-09-06T06:26:47.483Z,99.90
2017-09-06T06:29:15.035Z,99.90
2017-09-06T06:31:42.622Z,99.90
2017-09-06T06:34:10.192Z,99.90
2017-09-06T06:36:37.769Z,99.90
2017-09-06T06:39:05.564Z,99.90
2017-09-06T06:41:33.127Z,99.90
2017-09-06T06:44:00.715Z,99.90
2017-09-06T06:46:28.355Z,99.90
2017-09-06T06:48:55.938Z,99.90
2017-09-06T06:51:23.508Z,99.90
2017-09-06T06:53:51.107Z,99.90
2017-09-06T06:56:18.663Z,99.90
2017-09-06T06:58:46.218Z,99.90
2017-09-06T07:01:13.812Z,99.90
2017-09-06T07:03:41.367Z,99.90
2017-09-06T07:06:08.972Z,99.90
2017-09-06T07:08:36.655Z,99.90
2017-09-06T07:11:04.207Z,99.90
2017-09-06T07:13:31.803Z,99.90
2017-09-06T07:15:59.383Z,99.90
2017-09-06T07:18:26.939Z,99.90
2017-09-06T07:20:54.538Z,99.90
2017-09-06T07:23:22.855Z,99.90
2017-09-06T07:25:50.421Z,99.90
2017-09-06T07:28:18.007Z,99.90
2017-09-06T07:30:45.568Z,99.90
2017-09-06T07:33:13.156Z,99.90
2017-09-06T07:35:40.711Z,99.90
2017-09-06T07:38:08.299Z,99.90
2017-09-06T07:40:35.888Z,99.90
2017-09-06T07:43:03.518Z,99.90
2017-09-06T07:45:31.095Z,99.90
2017-09-06T07:47:58.675Z,99.90
2017-09-06T07:50:26.292Z,99.90
2017-09-06T07:52:53.852Z,99.90
2017-09-06T07:55:21.427Z,99.90
2017-09-06T07:57:49.012Z,99.90
2017-09-06T08:00:16.587Z,99.90
2017-09-06T08:02:44.187Z,99.90
2017-09-06T08:05:11.819Z,99.90
2017-09-06T08:10:39.089Z,99.90
2017-09-06T08:13:06.683Z,99.90
2017-09-06T08:15:34.234Z,99.90
2017-09-06T08:18:01.924Z,99.90
2017-09-06T08:20:29.535Z,99.90
2017-09-06T08:22:57.123Z,99.90
2017-09-06T08:25:24.679Z,99.90
2017-09-06T08:27:52.359Z,99.90
2017-09-06T08:30:20.022Z,99.40
2017-09-06T08:32:47.592Z,99.30
2017-09-06T08:35:15.190Z,99.10
2017-09-06T08:37:42.747Z,98.60
2017-09-06T08:40:10.348Z,98.90
2017-09-06T08:42:37.916Z,99.90
2017-09-06T08:45:05.530Z,99.80
2017-09-06T08:47:33.092Z,99.90
2017-09-06T08:50:00.680Z,99.90
2017-09-06T08:52:28.231Z,99.90
2017-09-06T08:54:55.787Z,99.90
2017-09-06T08:57:23.366Z,99.90
2017-09-06T08:59:50.923Z,99.90
2017-09-06T09:02:18.580Z,99.90
2017-09-06T09:04:46.147Z,99.90
2017-09-06T09:07:14.511Z,99.90
2017-09-06T09:09:42.096Z,99.90
2017-09-06T09:12:09.647Z,99.90
2017-09-06T09:14:37.206Z,99.90
2017-09-06T09:17:04.796Z,99.90
2017-09-06T09:19:32.374Z,99.90
2017-09-06T09:21:59.935Z,99.90
2017-09-06T09:24:27.523Z,99.90
2017-09-06T09:26:55.080Z,99.90
2017-09-06T09:29:22.678Z,99.90
2017-09-06T09:31:50.247Z,99.90
2017-09-06T09:34:17.819Z,99.90
2017-09-06T09:36:45.391Z,99.90
2017-09-06T09:39:12.970Z,99.40
2017-09-06T09:41:40.527Z,98.20
2017-09-06T09:44:08.080Z,98.60
2017-09-06T09:46:35.707Z,98.80
2017-09-06T09:49:03.271Z,99.90
2017-09-06T09:51:30.935Z,99.90
2017-09-06T09:53:58.607Z,99.90
2017-09-06T09:56:26.163Z,99.90
2017-09-06T09:58:53.743Z,99.90
2017-09-06T10:01:21.308Z,99.90
2017-09-06T10:03:48.923Z,99.90
2017-09-06T10:06:16.479Z,99.90
2017-09-06T10:08:44.060Z,99.90
2017-09-06T10:11:11.650Z,99.90
2017-09-06T10:13:39.210Z,99.90
2017-09-06T10:16:06.767Z,99.90
2017-09-06T10:18:34.369Z,99.50
2017-09-06T10:21:01.941Z,98.70
2017-09-06T10:23:29.547Z,99.20
2017-09-06T10:25:57.147Z,99.70
2017-09-06T10:28:24.715Z,99.90
2017-09-06T10:30:52.348Z,99.90
2017-09-06T10:33:20.011Z,99.90
2017-09-06T10:35:47.571Z,99.90
2017-09-06T10:38:15.175Z,99.90
2017-09-06T10:40:42.887Z,99.90
2017-09-06T10:43:10.496Z,99.90
2017-09-06T10:45:38.056Z,99.90
2017-09-06T10:48:05.608Z,99.90
2017-09-06T10:50:33.211Z,99.90
2017-09-06T10:53:00.783Z,99.90
2017-09-06T10:55:28.379Z,99.90
2017-09-06T10:57:55.966Z,99.90
2017-09-06T11:00:23.524Z,99.90
2017-09-06T11:02:51.090Z,99.90
2017-09-06T11:05:18.676Z,99.90
2017-09-06T11:07:46.238Z,99.90
2017-09-06T11:10:13.824Z,99.90
2017-09-06T11:12:41.429Z,99.90
2017-09-06T11:15:09.026Z,99.90
2017-09-06T11:17:36.599Z,99.90
2017-09-06T11:20:04.231Z,99.90
2017-09-06T11:22:31.831Z,99.90
2017-09-06T11:24:59.397Z,99.90
2017-09-06T11:27:26.980Z,99.90
2017-09-06T11:29:54.667Z,99.90
2017-09-06T11:32:22.286Z,99.90
2017-09-06T11:34:49.859Z,99.90
2017-09-06T11:37:17.419Z,99.90
2017-09-06T11:39:45.008Z,99.90
2017-09-06T11:42:12.563Z,99.90
2017-09-06T11:44:40.116Z,99.90
2017-09-06T11:47:07.699Z,99.90
2017-09-06T11:49:35.315Z,99.90
2017-09-06T11:52:02.882Z,99.90
2017-09-06T11:54:30.447Z,99.90
2017-09-06T11:56:58.151Z,99.90
2017-09-06T11:59:25.719Z,99.90
2017-09-06T12:01:53.289Z,99.90
2017-09-06T12:04:20.874Z,99.90
2017-09-06T12:06:48.435Z,99.90
2017-09-06T12:09:16.031Z,99.90
2017-09-06T12:11:43.600Z,99.90
2017-09-06T12:14:11.159Z,99.90
2017-09-06T12:16:38.768Z,99.90
2017-09-06T12:19:06.311Z,99.90
2017-09-06T12:21:34.636Z,99.90
2017-09-06T12:24:02.232Z,99.90
2017-09-06T12:26:29.828Z,99.90
2017-09-06T12:28:57.448Z,99.90
2017-09-06T12:31:25.167Z,99.90
2017-09-06T12:33:52.748Z,99.90
2017-09-06T12:36:20.315Z,99.90
2017-09-06T12:38:47.922Z,99.90
2017-09-06T12:41:15.519Z,99.90
2017-09-06T12:43:43.116Z,99.90
2017-09-06T12:46:10.669Z,99.90
2017-09-06T12:48:38.436Z,99.90
2017-09-06T12:51:06.031Z,99.90
2017-09-06T12:53:33.583Z,99.90
2017-09-06T12:56:01.175Z,99.90
2017-09-06T12:58:28.756Z,99.90
2017-09-06T13:00:56.338Z,99.90
2017-09-06T13:03:23.932Z,99.90
2017-09-06T13:05:51.514Z,99.90
2017-09-06T13:08:19.068Z,99.90
2017-09-06T13:10:46.669Z,99.90
2017-09-06T13:13:15.000Z,99.90
2017-09-06T13:15:42.568Z,99.90
2017-09-06T13:18:10.147Z,99.90
2017-09-06T13:20:37.716Z,99.90
2017-09-06T13:23:05.323Z,99.90
2017-09-06T13:25:33.065Z,99.90
2017-09-06T13:28:00.623Z,99.90
2017-09-06T13:30:28.208Z,99.90
2017-09-06T13:32:55.772Z,99.90
2017-09-06T13:35:23.360Z,99.90
2017-09-06T13:37:50.918Z,99.90
2017-09-06T13:40:18.576Z,99.90
2017-09-06T13:42:46.359Z,99.90
2017-09-06T13:45:13.915Z,99.90
2017-09-06T13:47:41.516Z,99.90
2017-09-06T13:50:09.076Z,99.90
2017-09-06T13:52:36.628Z,99.90
2017-09-06T13:55:04.225Z,99.90
2017-09-06T13:57:31.796Z,99.90
2017-09-06T14:00:00.147Z,99.90
2017-09-06T14:02:27.700Z,99.90
2017-09-06T14:04:55.292Z,99.90
2017-09-06T14:07:22.929Z,99.90
2017-09-06T14:09:50.499Z,99.90
2017-09-06T14:12:18.187Z,99.90
2017-09-06T14:14:45.756Z,99.90
2017-09-06T14:17:13.351Z,99.90
2017-09-06T14:19:40.923Z,99.90
2017-09-06T14:22:08.484Z,99.90
2017-09-06T14:24:36.718Z,99.90
2017-09-06T14:27:04.295Z,99.90
2017-09-06T14:29:31.907Z,99.70
2017-09-06T14:31:59.547Z,99.20
2017-09-06T14:34:27.165Z,99.80
2017-09-06T14:36:54.851Z,99.60
2017-09-06T14:39:22.408Z,99.10
2017-09-06T14:41:49.972Z,99.00
2017-09-06T14:44:17.555Z,99.40
2017-09-06T14:46:45.147Z,98.80
2017-09-06T14:49:12.747Z,99.00
2017-09-06T14:51:40.308Z,99.50
2017-09-06T14:54:07.891Z,98.40
2017-09-06T14:56:36.256Z,97.30
2017-09-06T14:59:03.819Z,97.30
2017-09-06T15:01:31.411Z,96.70
2017-09-06T15:03:58.975Z,95.40
2017-09-06T15:06:26.555Z,95.20
2017-09-06T15:08:54.142Z,95.70
2017-09-06T15:11:21.699Z,96.10
2017-09-06T15:13:49.279Z,96.00
2017-09-06T15:16:16.845Z,96.10
2017-09-06T15:18:44.455Z,96.60
2017-09-06T15:21:12.017Z,96.60
2017-09-06T15:23:39.605Z,96.90
2017-09-06T15:26:07.968Z,97.40
2017-09-06T15:28:35.556Z,97.30
2017-09-06T15:31:03.151Z,97.50
2017-09-06T15:33:30.736Z,97.10
2017-09-06T15:35:58.350Z,97.00
2017-09-06T15:38:25.944Z,96.60
2017-09-06T15:40:53.546Z,96.30
2017-09-06T15:43:21.148Z,96.50
2017-09-06T15:45:48.715Z,95.80
2017-09-06T15:48:16.418Z,95.90
2017-09-06T15:50:43.991Z,95.90
2017-09-06T15:53:11.572Z,95.90
2017-09-06T15:55:39.136Z,97.00
2017-09-06T15:58:06.733Z,96.40
2017-09-06T16:00:34.291Z,96.10
2017-09-06T16:03:01.856Z,94.80
2017-09-06T16:05:29.438Z,94.60
2017-09-06T16:07:57.105Z,95.10
2017-09-06T16:10:24.730Z,95.20
2017-09-06T16:12:52.289Z,94.90
2017-09-06T16:15:19.854Z,94.10
2017-09-06T16:17:47.432Z,93.90
2017-09-06T16:20:14.986Z,93.80
2017-09-06T16:22:42.708Z,93.40
2017-09-06T16:25:10.275Z,93.80
2017-09-06T16:27:37.881Z,94.20
2017-09-06T16:30:05.448Z,94.60
2017-09-06T16:32:33.008Z,95.40
2017-09-06T16:35:00.606Z,95.60
2017-09-06T16:37:28.172Z,96.00
2017-09-06T16:39:55.761Z,96.20
2017-09-06T16:42:23.407Z,96.50
2017-09-06T16:44:50.975Z,96.30
2017-09-06T16:47:18.564Z,96.50
2017-09-06T16:49:46.138Z,96.70
2017-09-06T16:52:13.747Z,97.20
2017-09-06T16:54:42.077Z,96.80
2017-09-06T16:57:09.707Z,96.80
2017-09-06T16:59:37.267Z,97.00
2017-09-06T17:02:04.831Z,97.20
2017-09-06T17:04:32.444Z,97.50
2017-09-06T17:07:00.776Z,97.70
2017-09-06T17:09:40.433Z,97.60
2017-09-06T17:12:08.123Z,97.70
2017-09-06T17:14:35.736Z,97.80
2017-09-06T17:17:03.405Z,97.60
2017-09-06T17:19:31.010Z,97.70
2017-09-06T17:21:58.704Z,98.20
2017-09-06T17:24:26.261Z,98.70
2017-09-06T17:26:53.846Z,98.00
2017-09-06T17:29:21.409Z,98.10
2017-09-06T17:31:49.020Z,98.30
2017-09-06T17:34:16.576Z,98.10
2017-09-06T17:36:44.175Z,97.90
2017-09-06T17:39:11.735Z,98.00
2017-09-06T17:41:39.329Z,98.30
2017-09-06T17:44:06.915Z,98.60
2017-09-06T17:46:34.590Z,98.90
2017-09-06T17:49:02.195Z,99.00
2017-09-06T17:51:29.799Z,98.70
2017-09-06T17:53:57.363Z,98.90
2017-09-06T17:56:24.948Z,98.90
2017-09-06T17:58:52.515Z,99.10
2017-09-06T18:01:20.131Z,98.90
2017-09-06T18:03:47.701Z,98.70
2017-09-06T18:06:15.299Z,98.80
2017-09-06T18:08:42.869Z,99.20
2017-09-06T18:11:10.439Z,98.80
2017-09-06T18:13:38.037Z,99.50
2017-09-06T18:16:05.619Z,99.90
2017-09-06T18:18:33.203Z,99.50
2017-09-06T18:21:00.777Z,99.70
2017-09-06T18:23:28.375Z,99.20
2017-09-06T18:25:55.935Z,99.90
2017-09-06T18:28:23.527Z,99.90
2017-09-06T18:30:51.128Z,99.90
2017-09-06T18:33:18.687Z,99.90
2017-09-06T18:35:46.267Z,99.60
2017-09-06T18:38:13.872Z,99.20
2017-09-06T18:40:41.472Z,99.10
2017-09-06T18:43:09.064Z,99.00
2017-09-06T18:45:36.636Z,99.20
2017-09-06T18:48:04.267Z,99.10
2017-09-06T18:50:31.832Z,99.00
2017-09-06T18:52:59.440Z,99.40
2017-09-06T18:55:27.001Z,99.50
2017-09-06T18:57:54.600Z,99.30
2017-09-06T19:00:22.171Z,99.70
2017-09-06T19:02:49.780Z,99.90
2017-09-06T19:05:17.348Z,99.70
2017-09-06T19:07:44.971Z,99.90
2017-09-06T19:10:12.587Z,99.80
2017-09-06T19:12:40.149Z,99.90
2017-09-06T19:15:07.743Z,99.90
2017-09-06T19:17:35.307Z,99.90
2017-09-06T19:20:02.941Z,99.90
2017-09-06T19:22:30.508Z,99.90
2017-09-06T19:24:58.114Z,99.90
2017-09-06T19:27:25.727Z,99.90
2017-09-06T19:29:53.315Z,99.90
2017-09-06T19:32:20.880Z,99.90
2017-09-06T19:34:48.503Z,99.90
2017-09-06T19:37:16.081Z,99.90
2017-09-06T19:39:43.640Z,99.90
2017-09-06T19:42:11.218Z,99.90
2017-09-06T19:44:38.830Z,99.90
2017-09-06T19:47:06.412Z,99.90
2017-09-06T19:49:33.981Z,99.90
2017-09-06T19:52:01.586Z,99.90
2017-09-06T19:54:29.151Z,99.90
2017-09-06T19:56:56.727Z,99.90
2017-09-06T19:59:24.342Z,99.90
2017-09-06T20:01:51.919Z,99.90
2017-09-06T20:04:19.511Z,99.90
2017-09-06T20:06:47.133Z,99.90
2017-09-06T20:09:14.702Z,99.90
2017-09-06T20:11:42.336Z,99.90
2017-09-06T20:14:09.892Z,99.90
2017-09-06T20:16:37.484Z,99.90
2017-09-06T20:19:05.071Z,99.90
2017-09-06T20:21:32.735Z,99.90
2017-09-06T20:24:00.299Z,99.90
2017-09-06T20:26:27.965Z,99.90
2017-09-06T20:28:55.531Z,99.90
2017-09-06T20:31:23.127Z,99.90
2017-09-06T20:33:50.703Z,99.90
2017-09-06T20:36:18.311Z,99.90
2017-09-06T20:38:45.924Z,99.90
2017-09-06T20:41:13.498Z,99.90
2017-09-06T20:43:41.101Z,99.90
2017-09-06T20:46:08.663Z,99.90
2017-09-06T20:48:36.268Z,99.90
2017-09-06T20:51:03.857Z,99.90
2017-09-06T20:53:31.554Z,99.90
2017-09-06T20:55:59.164Z,99.90
2017-09-06T20:58:26.735Z,99.90
2017-09-06T21:00:54.299Z,99.90
2017-09-06T21:03:21.889Z,99.90
2017-09-06T21:05:49.463Z,99.90
2017-09-06T21:08:17.076Z,99.90
2017-09-06T21:10:44.649Z,99.90
2017-09-06T21:13:12.216Z,99.90
2017-09-06T21:15:39.898Z,99.90
2017-09-06T21:18:07.460Z,99.90
2017-09-06T21:20:35.056Z,99.90
2017-09-06T21:23:02.631Z,99.90
2017-09-06T21:25:30.271Z,99.90
2017-09-06T21:27:57.864Z,99.90
2017-09-06T21:30:25.423Z,99.90
2017-09-06T21:32:53.101Z,99.90
2017-09-06T21:35:20.690Z,99.90
2017-09-06T21:37:48.248Z,99.90
2017-09-06T21:40:15.843Z,99.90
2017-09-06T21:42:43.471Z,99.90
2017-09-06T21:45:11.063Z,99.90
2017-09-06T21:47:39.396Z,99.90
2017-09-06T21:50:07.005Z,99.90
2017-09-06T21:52:34.579Z,99.90
2017-09-06T21:55:02.115Z,99.90
2017-09-06T21:57:29.722Z,99.90
2017-09-06T21:59:57.280Z,99.90
2017-09-06T22:02:24.839Z,99.90
2017-09-06T22:04:52.429Z,99.90
2017-09-06T22:07:20.008Z,99.90
2017-09-06T22:09:47.599Z,99.90
2017-09-06T22:12:15.175Z,99.90
2017-09-06T22:14:42.751Z,99.90
2017-09-06T22:17:10.373Z,99.90
2017-09-06T22:19:37.948Z,99.90
2017-09-06T22:22:05.511Z,99.90
2017-09-06T22:24:33.123Z,99.90
2017-09-06T22:27:00.680Z,99.90
2017-09-06T22:29:29.074Z,99.90
2017-09-06T22:31:56.740Z,99.90
2017-09-06T22:34:24.347Z,99.90
2017-09-06T22:36:52.019Z,99.90
2017-09-06T22:39:19.571Z,99.90
2017-09-06T22:41:47.147Z,99.90
2017-09-06T22:44:14.943Z,99.90
2017-09-06T22:46:42.527Z,99.90
2017-09-06T22:49:10.173Z,99.90
2017-09-06T22:51:37.908Z,99.90
2017-09-06T22:54:05.519Z,99.90
2017-09-06T22:56:33.088Z,99.90
2017-09-06T22:59:00.659Z,99.90
2017-09-06T23:01:28.263Z,99.90
2017-09-06T23:03:55.916Z,99.90
2017-09-06T23:06:23.511Z,99.90
2017-09-06T23:08:51.088Z,99.90
2017-09-06T23:11:18.651Z,99.90
2017-09-06T23:13:46.243Z,99.90
2017-09-06T23:16:13.827Z,99.90
2017-09-06T23:18:41.534Z,99.90
2017-09-06T23:21:09.095Z,99.90
2017-09-06T23:23:37.492Z,99.90
2017-09-06T23:26:05.131Z,99.90
2017-09-06T23:28:32.698Z,99.90
2017-09-06T23:31:00.255Z,99.90
2017-09-06T23:33:27.838Z,99.90
2017-09-06T23:35:55.415Z,99.90
2017-09-06T23:38:23.007Z,99.90
2017-09-06T23:40:50.628Z,99.90
2017-09-06T23:43:18.194Z,99.90
2017-09-06T23:45:45.751Z,99.90
2017-09-06T23:48:13.455Z,99.90
2017-09-06T23:50:41.027Z,99.90
2017-09-06T23:53:09.379Z,99.90
2017-09-06T23:55:36.974Z,99.90
2017-09-06T23:58:04.531Z,99.90
